weather.gov     
National Weather Service

Terminal Aerodrome Forecast
NWS Homepage
This page is being discontinued on March 12, 2014.
The same data is available at this site. Please update your bookmarks.
Thank you, and we apologize for the inconvenience.
Please send an email to SR-SRH.Webmaster@noaa.gov with any concerns.


Current Version
Previous Version:    01  02  03  04  05  06  07  08  09  10  11  12  13  14  15  16  17  18  19  20  21  22  23  
[Printable]
019
FTUS43 KPAH 242300
TAFEVV
TAF
KEVV 242321Z 2500/2524 16011G19KT P6SM BKN250
     FM250200 17012G19KT P6SM VCTS BKN045CB OVC150
      TEMPO 2503/2506 24025G35KT 3SM TSRA BR OVC025CB
     FM250600 21014G21KT 6SM -SHRA BR OVC010
     FM251200 31014KT P6SM SCT025=


U.S. Dept. of Commerce
NOAA National Weather Service
1325 East West Highway
Silver Spring, MD 20910
E-mail: w-nws.webmaster@noaa.gov
Page last modified: May 16, 2007
NATIONAL WEATHER SERVICE: for Safety, for Work, for Fun - FOR LIFE